Time;durP1;ratioP1;P1;durP2;ratioP2;P2;SDS_P1;SDS_P2;PMS_P1;PMS_P2;Temp;Humidity;BMP_temperature;BMP_pressure;BME280_temperature;BME280_humidity;BME280_pressure;Samples;Min_cycle;Max_cycle;Signal;HPM_P1;HPM_P2
2022/05/01 00:01:45;;;;;;;19.92;14.05;;;;;;;;;;5091657;28;20039;-81
2022/05/01 00:04:11;;;;;;;17.63;12.40;;;;;;;;;;5091896;28;20047;-81
2022/05/01 00:06:37;;;;;;;16.52;12.23;;;;;;;;;;5091640;28;20067;-81
2022/05/01 00:09:04;;;;;;;16.70;12.13;;;;;;;;;;5091410;28;20135;-81
2022/05/01 00:11:31;;;;;;;17.63;12.63;;;;;;;;;;5074935;28;20099;-81
2022/05/01 00:13:58;;;;;;;18.35;13.13;;;;;;;;;;5091757;28;20040;-80
2022/05/01 00:16:24;;;;;;;16.40;12.30;;;;;;;;;;5075147;28;20035;-81
2022/05/01 00:18:50;;;;;;;17.15;12.55;;;;;;;;;;5091584;28;20407;-80
2022/05/01 00:21:16;;;;;;;18.70;13.95;;;;;;;;;;5091343;28;20553;-81
2022/05/01 00:23:43;;;;;;;19.98;13.52;;;;;;;;;;5074168;28;20043;-81
2022/05/01 00:26:09;;;;;;;15.85;12.40;;;;;;;;;;5091319;28;20039;-80
2022/05/01 00:28:38;;;;;;;19.15;14.10;;;;;;;;;;5091324;28;20119;-81
2022/05/01 00:31:06;;;;;;;19.48;14.02;;;;;;;;;;5091773;28;20466;-81
2022/05/01 00:36:26;;;;;;;18.98;14.68;;;;;;;;;;5091410;28;20372;-80
2022/05/01 00:38:56;;;;;;;20.60;14.93;;;;;;;;;;5091179;28;20035;-81
2022/05/01 00:41:26;;;;;;;18.92;13.65;;;;;;;;;;5074572;28;20126;-81
2022/05/01 00:43:57;;;;;;;18.55;14.00;;;;;;;;;;5091516;28;20051;-81
2022/05/01 00:46:24;;;;;;;18.85;13.95;;;;;;;;;;5074839;28;20476;-81
2022/05/01 00:48:50;;;;;;;19.13;13.65;;;;;;;;;;5091638;28;20032;-81
2022/05/01 00:51:17;;;;;;;17.77;14.18;;;;;;;;;;5091586;28;20093;-80
2022/05/01 00:53:44;;;;;;;18.35;13.77;;;;;;;;;;5090280;28;20040;-81
2022/05/01 00:56:11;;;;;;;17.88;13.95;;;;;;;;;;5074665;28;20559;-81
2022/05/01 00:58:37;;;;;;;21.42;14.40;;;;;;;;;;5076427;28;20043;-81
2022/05/01 01:01:04;;;;;;;18.38;13.77;;;;;;;;;;5094623;28;20051;-81
2022/05/01 01:03:30;;;;;;;19.23;14.65;;;;;;;;;;5088092;28;20035;-81
2022/05/01 01:05:56;;;;;;;18.48;14.80;;;;;;;;;;5077933;28;20497;-81
2022/05/01 01:08:22;;;;;;;20.20;15.32;;;;;;;;;;5078036;28;20266;-81
2022/05/01 01:10:48;;;;;;;20.30;15.50;;;;;;;;;;5077748;28;20445;-81
2022/05/01 01:13:15;;;;;;;19.92;14.82;;;;;;;;;;5094761;28;20117;-81
2022/05/01 01:15:41;;;;;;;21.17;15.68;;;;;;;;;;5094318;28;20126;-80
2022/05/01 01:18:07;;;;;;;22.45;15.55;;;;;;;;;;5077780;28;20043;-81
2022/05/01 01:20:37;;;;;;;20.30;14.27;;;;;;;;;;5094541;28;20050;-80
2022/05/01 01:23:04;;;;;;;20.80;15.57;;;;;;;;;;5094498;28;20093;-80
2022/05/01 01:25:32;;;;;;;18.98;14.90;;;;;;;;;;5077668;28;20533;-80
2022/05/01 01:28:03;;;;;;;20.40;15.75;;;;;;;;;;5094354;28;20122;-81
2022/05/01 01:33:18;;;;;;;22.73;16.35;;;;;;;;;;5093737;28;20043;-81
2022/05/01 01:35:45;;;;;;;19.25;14.45;;;;;;;;;;5094182;28;20259;-81
2022/05/01 01:38:11;;;;;;;19.23;14.38;;;;;;;;;;5094189;28;20073;-80
2022/05/01 01:40:43;;;;;;;19.73;15.45;;;;;;;;;;5094139;28;20043;-80
2022/05/01 01:43:10;;;;;;;20.63;15.07;;;;;;;;;;5077139;28;20286;-80
2022/05/01 01:45:36;;;;;;;21.15;16.05;;;;;;;;;;5094057;28;20487;-80
2022/05/01 01:48:12;;;;;;;18.08;15.05;;;;;;;;;;5093857;28;20093;-80
2022/05/01 01:50:38;;;;;;;19.38;15.15;;;;;;;;;;5077318;28;20180;-80
2022/05/01 01:53:05;;;;;;;19.00;14.88;;;;;;;;;;5094010;28;20229;-81
2022/05/01 01:55:37;;;;;;;19.50;15.10;;;;;;;;;;5077137;28;20552;-80
2022/05/01 01:58:03;;;;;;;19.45;15.52;;;;;;;;;;5093607;28;20035;-80
2022/05/01 02:00:30;;;;;;;19.88;15.00;;;;;;;;;;5077269;28;20040;-80
2022/05/01 02:03:00;;;;;;;20.77;15.05;;;;;;;;;;5077223;28;20088;-80
2022/05/01 02:05:26;;;;;;;21.17;16.67;;;;;;;;;;5093964;28;20042;-80
2022/05/01 02:07:53;;;;;;;22.92;15.82;;;;;;;;;;5093462;28;20035;-80
2022/05/01 02:10:20;;;;;;;19.92;15.55;;;;;;;;;;5093246;28;20032;-80
2022/05/01 02:12:46;;;;;;;21.25;15.23;;;;;;;;;;5076369;28;20126;-80
2022/05/01 02:15:12;;;;;;;20.08;15.65;;;;;;;;;;5093389;28;20043;-80
2022/05/01 02:17:39;;;;;;;21.20;16.00;;;;;;;;;;5093274;28;20172;-80
2022/05/01 02:20:08;;;;;;;22.38;16.83;;;;;;;;;;5076764;28;20554;-80
2022/05/01 02:22:35;;;;;;;20.17;15.48;;;;;;;;;;5093008;28;20035;-80
2022/05/01 02:25:02;;;;;;;22.35;17.63;;;;;;;;;;5093417;28;20190;-80
2022/05/01 02:27:28;;;;;;;22.48;17.20;;;;;;;;;;5093308;28;20040;-80
2022/05/01 02:29:54;;;;;;;21.05;16.73;;;;;;;;;;5093114;28;20096;-80
2022/05/01 02:32:21;;;;;;;22.08;16.55;;;;;;;;;;5093496;28;20703;-80
2022/05/01 02:34:47;;;;;;;24.60;17.70;;;;;;;;;;5075624;28;20169;-80
2022/05/01 02:37:13;;;;;;;24.48;19.60;;;;;;;;;;5075966;28;20053;-80
2022/05/01 02:39:39;;;;;;;25.92;20.23;;;;;;;;;;5092530;28;20503;-80
2022/05/01 02:42:05;;;;;;;24.83;18.40;;;;;;;;;;5092669;28;20035;-80
2022/05/01 02:44:32;;;;;;;26.70;20.10;;;;;;;;;;5092413;28;20085;-80
2022/05/01 02:46:58;;;;;;;24.77;19.33;;;;;;;;;;5092495;28;20071;-80
2022/05/01 02:49:24;;;;;;;28.20;20.77;;;;;;;;;;5093187;28;20075;-80
2022/05/01 02:51:52;;;;;;;25.50;18.65;;;;;;;;;;5092180;28;20044;-79
2022/05/01 02:54:19;;;;;;;29.00;21.48;;;;;;;;;;5092053;28;20040;-79
2022/05/01 02:56:45;;;;;;;27.40;19.48;;;;;;;;;;5092541;28;20513;-79
2022/05/01 02:59:11;;;;;;;25.58;19.02;;;;;;;;;;5092213;28;20518;-79
2022/05/01 03:01:38;;;;;;;22.23;16.85;;;;;;;;;;5075207;28;20032;-79
2022/05/01 03:04:04;;;;;;;18.15;14.38;;;;;;;;;;5092069;28;20399;-80
2022/05/01 03:06:32;;;;;;;18.15;14.23;;;;;;;;;;5075219;28;20051;-80
2022/05/01 03:08:58;;;;;;;20.15;15.13;;;;;;;;;;5091937;28;20119;-80
2022/05/01 03:11:24;;;;;;;19.10;14.15;;;;;;;;;;5092044;28;20065;-80
2022/05/01 03:13:50;;;;;;;17.77;14.05;;;;;;;;;;5092064;28;20706;-79
2022/05/01 03:16:16;;;;;;;19.75;15.63;;;;;;;;;;5091829;28;20165;-79
2022/05/01 03:24:12;;;;;;;17.98;14.40;;;;;;;;;;5077328;28;20043;-79
2022/05/01 03:26:38;;;;;;;17.15;13.05;;;;;;;;;;5091494;28;20039;-79
2022/05/01 03:29:05;;;;;;;17.52;12.93;;;;;;;;;;5091774;28;20046;-79
2022/05/01 03:31:31;;;;;;;13.68;11.45;;;;;;;;;;5091235;28;20068;-80
2022/05/01 03:33:58;;;;;;;17.55;12.57;;;;;;;;;;5074291;28;20055;-79
2022/05/01 03:36:24;;;;;;;17.17;13.75;;;;;;;;;;5091677;28;20090;-79
2022/05/01 03:38:50;;;;;;;15.65;11.68;;;;;;;;;;5091381;28;20054;-79
2022/05/01 03:41:17;;;;;;;19.13;14.30;;;;;;;;;;5091493;28;20437;-80
2022/05/01 03:43:43;;;;;;;19.13;13.90;;;;;;;;;;5091582;28;20130;-79
2022/05/01 03:46:10;;;;;;;21.58;15.80;;;;;;;;;;5074695;28;20048;-80
2022/05/01 03:48:36;;;;;;;21.02;16.38;;;;;;;;;;5091476;28;20487;-79
2022/05/01 03:51:02;;;;;;;20.98;15.55;;;;;;;;;;5091509;28;20104;-78
2022/05/01 03:53:31;;;;;;;21.75;16.38;;;;;;;;;;5091217;28;20040;-78
2022/05/01 03:55:58;;;;;;;20.60;16.05;;;;;;;;;;5074351;28;20071;-79
2022/05/01 03:58:24;;;;;;;22.25;16.90;;;;;;;;;;5090938;28;20146;-78
2022/05/01 04:00:50;;;;;;;23.52;18.35;;;;;;;;;;5090741;28;20073;-78
2022/05/01 04:03:20;;;;;;;23.98;19.70;;;;;;;;;;5091076;28;20046;-80
2022/05/01 04:05:46;;;;;;;22.17;18.08;;;;;;;;;;5074315;28;20040;-79
2022/05/01 04:08:13;;;;;;;24.50;18.23;;;;;;;;;;5091254;28;20118;-79
2022/05/01 04:10:43;;;;;;;24.35;17.85;;;;;;;;;;5074408;28;20035;-78
2022/05/01 04:13:10;;;;;;;24.30;18.73;;;;;;;;;;5070951;28;20372;-80
2022/05/01 04:15:42;;;;;;;24.13;18.70;;;;;;;;;;5079283;28;20078;-79
2022/05/01 04:18:09;;;;;;;27.73;20.17;;;;;;;;;;5091747;28;20397;-79
2022/05/01 04:20:38;;;;;;;27.08;19.65;;;;;;;;;;5073822;28;20035;-79
2022/05/01 04:23:08;;;;;;;26.38;20.20;;;;;;;;;;5074101;28;20411;-79
2022/05/01 04:25:34;;;;;;;26.10;19.67;;;;;;;;;;5091193;28;20144;-79
2022/05/01 04:28:05;;;;;;;24.88;19.02;;;;;;;;;;5074054;28;20051;-79
2022/05/01 04:30:31;;;;;;;22.77;18.05;;;;;;;;;;5090662;28;20040;-79
2022/05/01 04:32:59;;;;;;;27.20;20.05;;;;;;;;;;5092510;28;20043;-79
2022/05/01 04:35:28;;;;;;;25.60;19.90;;;;;;;;;;5094934;28;20056;-79
2022/05/01 04:37:56;;;;;;;27.17;20.13;;;;;;;;;;5095152;28;20043;-79
2022/05/01 04:40:22;;;;;;;28.00;19.45;;;;;;;;;;5094950;28;20036;-79
2022/05/01 04:42:48;;;;;;;28.00;19.60;;;;;;;;;;5094943;28;20040;-79
2022/05/01 04:45:14;;;;;;;25.83;19.08;;;;;;;;;;5094910;28;20040;-79
2022/05/01 04:47:41;;;;;;;28.83;20.52;;;;;;;;;;5080297;28;20085;-79
2022/05/01 04:50:07;;;;;;;25.65;18.80;;;;;;;;;;5091418;28;20050;-78
2022/05/01 04:52:37;;;;;;;25.70;19.50;;;;;;;;;;5094405;28;20048;-79
2022/05/01 04:55:04;;;;;;;24.13;18.40;;;;;;;;;;5082918;28;20040;-79
2022/05/01 04:57:31;;;;;;;24.45;18.63;;;;;;;;;;5087286;28;20054;-79
2022/05/01 04:59:57;;;;;;;24.98;18.20;;;;;;;;;;5094311;28;20563;-78
2022/05/01 05:02:23;;;;;;;29.48;20.30;;;;;;;;;;5094490;28;20032;-78
2022/05/01 05:04:49;;;;;;;26.73;19.38;;;;;;;;;;5094524;28;20557;-79
2022/05/01 05:07:16;;;;;;;25.27;19.17;;;;;;;;;;5095403;28;20035;-79
2022/05/01 05:09:54;;;;;;;25.30;19.17;;;;;;;;;;5096876;28;20134;-78
2022/05/01 05:12:22;;;;;;;26.15;20.02;;;;;;;;;;5095197;28;20074;-78
2022/05/01 05:14:51;;;;;;;25.55;19.63;;;;;;;;;;5094491;28;20097;-78
2022/05/01 05:17:19;;;;;;;29.52;21.58;;;;;;;;;;5094204;28;20040;-78
2022/05/01 05:19:46;;;;;;;29.67;20.40;;;;;;;;;;5077450;28;20126;-77
2022/05/01 05:22:12;;;;;;;28.75;21.10;;;;;;;;;;5094135;28;20036;-78
2022/05/01 05:24:38;;;;;;;26.58;19.33;;;;;;;;;;5094111;28;20169;-78
2022/05/01 05:27:05;;;;;;;27.00;20.35;;;;;;;;;;5093801;28;20075;-78
2022/05/01 05:29:31;;;;;;;28.90;21.42;;;;;;;;;;5077279;28;20054;-78
2022/05/01 05:31:58;;;;;;;27.27;20.65;;;;;;;;;;5093752;28;20118;-79
2022/05/01 05:34:24;;;;;;;29.10;20.50;;;;;;;;;;5093571;28;20194;-79
2022/05/01 05:36:50;;;;;;;27.60;20.60;;;;;;;;;;5093425;28;20052;-79
2022/05/01 05:39:16;;;;;;;28.20;19.92;;;;;;;;;;5093988;28;20124;-79
2022/05/01 05:41:42;;;;;;;26.77;19.83;;;;;;;;;;5094136;28;20035;-79
2022/05/01 05:44:09;;;;;;;24.98;19.10;;;;;;;;;;5092289;28;20114;-79
2022/05/01 05:46:35;;;;;;;28.67;21.33;;;;;;;;;;5093450;28;20517;-79
2022/05/01 05:49:08;;;;;;;27.10;19.80;;;;;;;;;;5093321;28;20039;-79
2022/05/01 05:51:34;;;;;;;25.80;18.98;;;;;;;;;;5093749;28;20031;-79
2022/05/01 05:54:00;;;;;;;28.77;20.92;;;;;;;;;;5094629;28;20036;-78
2022/05/01 05:56:26;;;;;;;29.00;20.70;;;;;;;;;;5093305;28;20380;-79
2022/05/01 05:58:53;;;;;;;26.50;19.77;;;;;;;;;;5094052;28;20085;-78
2022/05/01 06:01:19;;;;;;;31.63;20.77;;;;;;;;;;5090009;28;20036;-79
2022/05/01 06:03:45;;;;;;;29.27;21.25;;;;;;;;;;5081040;28;20118;-79
2022/05/01 06:06:12;;;;;;;29.52;21.77;;;;;;;;;;5094729;28;20035;-79
2022/05/01 06:08:38;;;;;;;28.15;21.42;;;;;;;;;;5076422;28;20040;-79
2022/05/01 06:11:04;;;;;;;28.60;22.50;;;;;;;;;;5092825;28;20050;-79
2022/05/01 06:13:31;;;;;;;29.95;22.30;;;;;;;;;;5092966;28;20043;-78
2022/05/01 06:15:57;;;;;;;29.52;22.23;;;;;;;;;;5094178;28;20040;-78
2022/05/01 06:18:23;;;;;;;31.45;21.98;;;;;;;;;;5093124;28;20039;-78
2022/05/01 06:20:50;;;;;;;26.55;20.63;;;;;;;;;;5075595;28;20047;-78
2022/05/01 06:23:17;;;;;;;32.92;23.77;;;;;;;;;;5092750;28;20188;-77
2022/05/01 06:25:43;;;;;;;37.67;25.70;;;;;;;;;;5092378;28;20039;-78
2022/05/01 06:28:10;;;;;;;38.42;28.33;;;;;;;;;;5092622;28;20535;-77
2022/05/01 06:30:39;;;;;;;36.88;26.50;;;;;;;;;;5092112;28;20043;-77
2022/05/01 06:33:07;;;;;;;34.55;25.73;;;;;;;;;;5092617;28;20047;-78
2022/05/01 06:35:34;;;;;;;33.15;25.05;;;;;;;;;;5071794;28;20066;-78
2022/05/01 06:38:00;;;;;;;32.25;23.65;;;;;;;;;;5088180;28;20067;-78
2022/05/01 06:40:26;;;;;;;29.52;23.13;;;;;;;;;;5088785;28;20083;-78
2022/05/01 06:42:52;;;;;;;26.92;19.60;;;;;;;;;;5088119;28;20036;-77
2022/05/01 06:45:19;;;;;;;26.42;19.10;;;;;;;;;;5088393;28;20036;-77
2022/05/01 06:47:45;;;;;;;28.98;18.73;;;;;;;;;;5088570;28;20289;-77
2022/05/01 06:50:11;;;;;;;22.33;17.63;;;;;;;;;;5071813;28;20539;-77
2022/05/01 06:52:38;;;;;;;23.00;16.85;;;;;;;;;;5067918;28;20131;-79
2022/05/01 06:55:04;;;;;;;22.27;15.70;;;;;;;;;;5077322;28;20071;-78
2022/05/01 06:57:31;;;;;;;17.40;12.73;;;;;;;;;;5073893;28;20044;-77
2022/05/01 06:59:57;;;;;;;21.40;13.05;;;;;;;;;;5088568;28;20483;-79
2022/05/01 07:02:23;;;;;;;15.57;12.05;;;;;;;;;;5088754;28;20032;-78
2022/05/01 07:04:49;;;;;;;17.30;10.68;;;;;;;;;;5071194;28;20066;-77
2022/05/01 07:07:16;;;;;;;15.75;10.70;;;;;;;;;;5088400;28;20063;-78
2022/05/01 07:09:42;;;;;;;14.38;9.05;;;;;;;;;;5088565;28;20395;-78
2022/05/01 07:12:10;;;;;;;14.60;10.75;;;;;;;;;;5071424;28;20047;-77
2022/05/01 07:14:40;;;;;;;14.82;9.70;;;;;;;;;;5088635;28;20567;-78
2022/05/01 07:17:06;;;;;;;15.43;11.02;;;;;;;;;;5078695;28;20036;-77
2022/05/01 07:19:33;;;;;;;13.63;9.10;;;;;;;;;;5084708;28;20403;-78
2022/05/01 07:21:59;;;;;;;13.88;9.90;;;;;;;;;;5087478;28;20032;-77
2022/05/01 07:24:25;;;;;;;14.82;10.35;;;;;;;;;;5071281;28;20710;-79
2022/05/01 07:26:51;;;;;;;12.70;9.57;;;;;;;;;;5070989;28;20040;-77
2022/05/01 07:29:18;;;;;;;13.80;10.00;;;;;;;;;;5070021;28;20119;-80
2022/05/01 07:31:44;;;;;;;14.18;10.02;;;;;;;;;;5082793;28;20079;-80
2022/05/01 07:34:10;;;;;;;13.88;9.45;;;;;;;;;;5069754;28;20113;-78
2022/05/01 07:36:37;;;;;;;14.15;9.95;;;;;;;;;;5084690;28;20127;-78
2022/05/01 07:39:03;;;;;;;17.52;10.40;;;;;;;;;;5087016;28;20113;-78
2022/05/01 07:41:30;;;;;;;14.35;10.38;;;;;;;;;;5087829;28;20040;-79
2022/05/01 07:43:56;;;;;;;15.05;11.18;;;;;;;;;;5089674;28;20043;-79
2022/05/01 07:46:23;;;;;;;14.57;10.77;;;;;;;;;;5087796;28;20036;-80
2022/05/01 07:48:49;;;;;;;12.88;9.50;;;;;;;;;;5070818;28;20040;-79
2022/05/01 07:51:16;;;;;;;13.27;9.73;;;;;;;;;;5084603;28;20036;-79
2022/05/01 07:53:42;;;;;;;14.35;9.95;;;;;;;;;;5083879;28;20031;-80
2022/05/01 07:56:08;;;;;;;14.73;9.30;;;;;;;;;;5087556;28;20403;-80
2022/05/01 07:58:34;;;;;;;12.20;9.35;;;;;;;;;;5087084;28;20036;-79
2022/05/01 08:01:03;;;;;;;13.45;9.23;;;;;;;;;;5087346;28;20086;-79
2022/05/01 08:06:18;;;;;;;12.43;7.97;;;;;;;;;;5079739;28;20105;-79
2022/05/01 08:08:44;;;;;;;11.48;7.60;;;;;;;;;;5069041;28;20032;-78
2022/05/01 08:11:13;;;;;;;10.57;6.72;;;;;;;;;;5069571;28;20416;-79
2022/05/01 08:13:39;;;;;;;11.40;7.07;;;;;;;;;;5070403;28;20063;-80
2022/05/01 08:16:05;;;;;;;10.65;6.68;;;;;;;;;;5086621;28;20040;-79
2022/05/01 08:21:17;;;;;;;9.18;6.05;;;;;;;;;;5087295;28;20047;-78
2022/05/01 08:23:43;;;;;;;9.82;6.03;;;;;;;;;;5087156;28;20089;-80
2022/05/01 08:26:11;;;;;;;11.07;6.75;;;;;;;;;;5070196;28;20040;-78
2022/05/01 08:28:41;;;;;;;8.27;5.13;;;;;;;;;;5087387;28;20086;-79
2022/05/01 08:31:07;;;;;;;9.27;5.60;;;;;;;;;;5085285;28;20052;-79
2022/05/01 08:33:34;;;;;;;11.27;5.70;;;;;;;;;;5079962;28;20055;-80
2022/05/01 08:36:04;;;;;;;7.78;5.30;;;;;;;;;;5073976;28;20407;-78
2022/05/01 08:38:30;;;;;;;12.18;5.95;;;;;;;;;;5087229;28;20302;-78
2022/05/01 08:40:57;;;;;;;10.35;6.10;;;;;;;;;;5072700;28;20061;-78
2022/05/01 08:43:24;;;;;;;8.68;5.50;;;;;;;;;;5071064;28;20044;-79
2022/05/01 08:45:53;;;;;;;10.55;5.90;;;;;;;;;;5089693;28;20127;-80
2022/05/01 08:48:26;;;;;;;9.45;5.53;;;;;;;;;;5076093;28;20731;-79
2022/05/01 08:50:53;;;;;;;9.98;5.63;;;;;;;;;;5092078;28;20058;-80
2022/05/01 08:53:20;;;;;;;9.95;5.80;;;;;;;;;;5091125;28;20036;-81
2022/05/01 08:55:47;;;;;;;10.23;5.47;;;;;;;;;;5089720;28;20126;-80
2022/05/01 08:58:14;;;;;;;9.38;5.30;;;;;;;;;;5089961;28;20530;-81
2022/05/01 09:00:41;;;;;;;11.23;6.22;;;;;;;;;;5089414;28;20066;-81
2022/05/01 09:03:08;;;;;;;8.38;5.40;;;;;;;;;;5094999;28;20509;-81
2022/05/01 09:05:34;;;;;;;11.88;5.93;;;;;;;;;;5077163;28;20487;-79
2022/05/01 09:08:00;;;;;;;8.20;5.25;;;;;;;;;;5095857;28;20092;-80
2022/05/01 09:10:27;;;;;;;10.50;5.13;;;;;;;;;;5086396;28;20149;-81
2022/05/01 09:12:53;;;;;;;7.95;5.40;;;;;;;;;;5085976;28;20031;-80
2022/05/01 09:15:32;;;;;;;14.70;6.15;;;;;;;;;;5089685;28;20067;-80
2022/05/01 09:18:02;;;;;;;8.40;6.00;;;;;;;;;;5071222;28;20043;-79
2022/05/01 09:20:39;;;;;;;8.20;5.20;;;;;;;;;;5082339;28;20123;-80
2022/05/01 09:23:06;;;;;;;9.32;5.00;;;;;;;;;;5093669;28;20047;-80
2022/05/01 09:25:33;;;;;;;7.80;5.25;;;;;;;;;;5089601;28;20125;-80
2022/05/01 09:28:01;;;;;;;8.60;4.88;;;;;;;;;;5078999;28;20057;-81
2022/05/01 09:30:35;;;;;;;8.23;4.80;;;;;;;;;;5094488;28;20075;-81
2022/05/01 09:33:02;;;;;;;8.85;5.75;;;;;;;;;;5093654;28;20040;-81
2022/05/01 09:35:32;;;;;;;10.38;5.72;;;;;;;;;;5093393;28;20124;-81
2022/05/01 09:38:15;;;;;;;9.18;5.50;;;;;;;;;;5093372;28;20545;-80
2022/05/01 09:40:41;;;;;;;7.90;5.30;;;;;;;;;;5092706;28;20039;-80
2022/05/01 09:43:08;;;;;;;10.40;5.20;;;;;;;;;;5076458;28;20468;-81
2022/05/01 09:45:34;;;;;;;8.48;5.00;;;;;;;;;;5093180;28;20260;-80
2022/05/01 09:48:00;;;;;;;9.27;5.38;;;;;;;;;;5084326;28;20036;-81
2022/05/01 09:50:40;;;;;;;8.63;5.00;;;;;;;;;;5076257;28;20075;-81
2022/05/01 09:53:06;;;;;;;10.02;5.70;;;;;;;;;;5092929;28;20074;-80
2022/05/01 09:55:33;;;;;;;8.10;5.18;;;;;;;;;;5093021;28;20395;-81
2022/05/01 09:58:03;;;;;;;9.77;5.97;;;;;;;;;;5093480;28;20069;-80
2022/05/01 10:00:44;;;;;;;8.30;4.95;;;;;;;;;;5092503;28;20243;-81
2022/05/01 10:03:23;;;;;;;8.45;5.32;;;;;;;;;;5076241;28;20062;-79
2022/05/01 10:05:50;;;;;;;8.48;4.68;;;;;;;;;;5092969;28;20071;-81
2022/05/01 10:08:20;;;;;;;8.05;4.70;;;;;;;;;;5093187;28;20284;-80
2022/05/01 10:10:47;;;;;;;6.97;4.53;;;;;;;;;;5075873;28;20065;-81
2022/05/01 10:13:14;;;;;;;8.30;4.47;;;;;;;;;;5093090;28;20035;-81
2022/05/01 10:15:41;;;;;;;12.40;5.40;;;;;;;;;;5092398;28;20108;-81
2022/05/01 10:18:07;;;;;;;8.23;5.10;;;;;;;;;;5092508;28;20044;-81
2022/05/01 10:20:37;;;;;;;7.80;4.80;;;;;;;;;;5092253;28;20104;-81
2022/05/01 10:23:03;;;;;;;7.90;4.53;;;;;;;;;;5092289;28;20114;-81
2022/05/01 10:25:34;;;;;;;8.25;4.47;;;;;;;;;;5092084;28;20074;-81
2022/05/01 10:28:04;;;;;;;7.60;4.45;;;;;;;;;;5076328;28;20047;-81
2022/05/01 10:33:46;;;;;;;6.72;3.95;;;;;;;;;;5061086;28;20567;-82
2022/05/01 10:36:14;;;;;;;;;;;;;;;;;;5076164;28;20131;-80
2022/05/01 10:38:42;;;;;;;7.65;4.13;;;;;;;;;;5075662;28;20362;-79
2022/05/01 10:41:11;;;;;;;8.45;3.90;;;;;;;;;;5091681;28;20054;-79
2022/05/01 10:43:38;;;;;;;6.15;3.90;;;;;;;;;;5075209;28;20070;-80
2022/05/01 10:46:05;;;;;;;6.43;3.70;;;;;;;;;;5091657;28;20035;-80
2022/05/01 10:48:41;;;;;;;7.70;4.45;;;;;;;;;;5074058;28;20031;-80
2022/05/01 10:51:26;;;;;;;8.18;4.05;;;;;;;;;;5074912;28;20521;-80
2022/05/01 10:54:23;;;;;;;5.95;3.63;;;;;;;;;;5084251;27;20402;-81
2022/05/01 10:56:50;;;;;;;8.35;4.35;;;;;;;;;;5079512;28;20036;-81
2022/05/01 10:59:35;;;;;;;8.13;4.57;;;;;;;;;;5080038;28;20044;-80
2022/05/01 11:02:01;;;;;;;7.15;4.43;;;;;;;;;;5097754;28;20110;-79
2022/05/01 11:04:42;;;;;;;7.88;4.30;;;;;;;;;;5075106;28;20129;-81
2022/05/01 11:07:25;;;;;;;9.45;4.28;;;;;;;;;;5091634;28;20046;-81
2022/05/01 11:09:51;;;;;;;7.40;4.05;;;;;;;;;;5091751;28;20081;-80
2022/05/01 11:12:19;;;;;;;8.68;4.80;;;;;;;;;;5091585;28;20042;-81
2022/05/01 11:14:50;;;;;;;8.15;4.80;;;;;;;;;;5075212;28;20047;-81
2022/05/01 11:17:27;;;;;;;7.75;4.55;;;;;;;;;;5091796;28;20112;-81
2022/05/01 11:19:55;;;;;;;6.80;4.32;;;;;;;;;;5075122;28;20199;-81
2022/05/01 11:22:28;;;;;;;8.18;4.38;;;;;;;;;;5092354;28;20487;-80
2022/05/01 11:24:54;;;;;;;7.03;4.85;;;;;;;;;;5075561;28;20533;-80
2022/05/01 11:27:21;;;;;;;8.00;4.88;;;;;;;;;;5091298;28;20039;-80
2022/05/01 11:30:06;;;;;;;7.90;4.68;;;;;;;;;;5091875;28;20043;-81
2022/05/01 11:32:45;;;;;;;6.88;4.40;;;;;;;;;;5074202;28;20077;-79
2022/05/01 11:35:11;;;;;;;8.45;4.68;;;;;;;;;;5074554;28;20545;-80
2022/05/01 11:38:07;;;;;;;9.13;5.28;;;;;;;;;;5075094;28;20489;-80
2022/05/01 11:40:33;;;;;;;7.90;4.25;;;;;;;;;;5074116;28;20430;-81
2022/05/01 11:43:18;;;;;;;6.57;4.20;;;;;;;;;;5089730;28;20047;-81
2022/05/01 11:45:46;;;;;;;7.22;4.32;;;;;;;;;;5104870;28;20043;-80
2022/05/01 11:48:21;;;;;;;11.27;4.22;;;;;;;;;;5071000;28;20047;-82
2022/05/01 11:50:49;;;;;;;6.05;3.72;;;;;;;;;;5070779;28;20063;-81
2022/05/01 11:53:24;;;;;;;13.77;4.18;;;;;;;;;;5091160;28;20043;-77
2022/05/01 12:04:25;;;;;;;7.07;4.70;;;;;;;;;;5124958;27;19964;-81
2022/05/01 12:07:20;;;;;;;8.52;4.60;;;;;;;;;;5091153;28;20127;-80
2022/05/01 12:09:47;;;;;;;6.95;4.05;;;;;;;;;;5090939;28;20039;-81
2022/05/01 12:12:14;;;;;;;10.57;4.65;;;;;;;;;;5090627;28;20044;-80
2022/05/01 12:14:41;;;;;;;6.78;3.70;;;;;;;;;;5091361;28;20130;-80
2022/05/01 12:17:11;;;;;;;9.95;4.30;;;;;;;;;;5090970;28;20043;-79
2022/05/01 12:19:38;;;;;;;7.28;4.10;;;;;;;;;;5074007;28;20578;-80
2022/05/01 12:22:09;;;;;;;6.65;4.22;;;;;;;;;;5074230;28;20414;-81
2022/05/01 12:24:38;;;;;;;7.63;3.92;;;;;;;;;;5073766;28;20035;-80
2022/05/01 12:27:05;;;;;;;9.63;4.68;;;;;;;;;;5074053;28;20035;-81
2022/05/01 12:29:32;;;;;;;8.48;5.00;;;;;;;;;;5090936;28;20542;-80
2022/05/01 12:32:01;;;;;;;8.15;4.43;;;;;;;;;;5073936;28;20039;-82
2022/05/01 12:34:32;;;;;;;6.10;4.15;;;;;;;;;;5073928;28;20452;-80
2022/05/01 12:36:59;;;;;;;6.68;4.10;;;;;;;;;;5074343;28;20040;-80
2022/05/01 12:39:26;;;;;;;8.07;3.90;;;;;;;;;;5073950;28;20051;-81
2022/05/01 12:45:07;;;;;;;7.53;4.10;;;;;;;;;;5077609;28;20044;-81
2022/05/01 12:47:34;;;;;;;6.55;3.67;;;;;;;;;;5073347;28;20043;-79
2022/05/01 12:50:01;;;;;;;8.88;4.50;;;;;;;;;;5090741;28;20075;-81
2022/05/01 12:52:31;;;;;;;8.77;4.65;;;;;;;;;;5091806;28;20051;-82
2022/05/01 12:55:05;;;;;;;9.13;4.40;;;;;;;;;;5095220;28;20035;-81
2022/05/01 12:57:32;;;;;;;9.20;4.88;;;;;;;;;;5077662;28;20521;-81
2022/05/01 12:59:58;;;;;;;7.78;4.55;;;;;;;;;;5093955;28;20043;-81
2022/05/01 13:02:25;;;;;;;7.70;4.28;;;;;;;;;;5077034;28;20044;-81
2022/05/01 13:04:58;;;;;;;7.18;4.20;;;;;;;;;;5094137;28;20065;-81
2022/05/01 13:07:31;;;;;;;9.40;4.05;;;;;;;;;;5094248;28;20066;-80
2022/05/01 13:09:57;;;;;;;6.35;3.90;;;;;;;;;;5093907;28;20126;-81
2022/05/01 13:12:30;;;;;;;6.75;4.40;;;;;;;;;;5093947;28;20570;-80
2022/05/01 13:15:04;;;;;;;7.50;4.32;;;;;;;;;;5093458;28;20035;-80
2022/05/01 13:17:31;;;;;;;6.65;4.15;;;;;;;;;;5093427;28;20050;-79
2022/05/01 13:19:58;;;;;;;8.15;4.07;;;;;;;;;;5076527;28;20122;-80
2022/05/01 13:22:25;;;;;;;7.65;4.22;;;;;;;;;;5093751;28;20092;-81
2022/05/01 13:24:52;;;;;;;7.47;4.07;;;;;;;;;;5093675;28;20138;-81
2022/05/01 13:27:19;;;;;;;11.80;4.28;;;;;;;;;;5093848;28;20390;-81
2022/05/01 13:29:45;;;;;;;6.65;4.13;;;;;;;;;;5076466;28;20046;-80
2022/05/01 13:32:14;;;;;;;6.50;4.03;;;;;;;;;;5093666;28;20046;-80
2022/05/01 13:35:06;;;;;;;8.80;4.25;;;;;;;;;;5092736;28;20066;-79
2022/05/01 13:37:34;;;;;;;7.18;3.83;;;;;;;;;;5076389;28;20684;-81
2022/05/01 13:45:31;;;;;;;7.20;3.85;;;;;;;;;;5130922;27;20038;-81
2022/05/01 13:47:57;;;;;;;7.43;4.57;;;;;;;;;;5091113;28;20043;-81
2022/05/01 13:50:24;;;;;;;8.00;5.07;;;;;;;;;;5092226;28;20039;-81
2022/05/01 13:52:50;;;;;;;8.27;4.13;;;;;;;;;;5074301;28;20044;-81
2022/05/01 13:55:17;;;;;;;7.32;4.10;;;;;;;;;;5090565;27;20047;-81
2022/05/01 13:57:43;;;;;;;6.80;4.30;;;;;;;;;;5079943;28;20039;-81
2022/05/01 14:00:12;;;;;;;7.93;4.03;;;;;;;;;;5090433;28;20092;-81
2022/05/01 14:02:38;;;;;;;6.53;3.80;;;;;;;;;;5074686;28;20046;-79
2022/05/01 14:05:08;;;;;;;7.20;4.25;;;;;;;;;;5090232;28;20475;-80
2022/05/01 14:07:34;;;;;;;9.10;4.20;;;;;;;;;;5095616;28;20038;-81
2022/05/01 14:10:03;;;;;;;7.30;4.45;;;;;;;;;;5076318;28;20426;-81
2022/05/01 14:12:29;;;;;;;6.95;4.05;;;;;;;;;;5091321;28;20075;-78
2022/05/01 14:14:55;;;;;;;5.65;3.95;;;;;;;;;;5076049;28;20410;-81
2022/05/01 14:17:22;;;;;;;6.57;3.95;;;;;;;;;;5075621;28;20040;-81
2022/05/01 14:19:48;;;;;;;8.90;4.20;;;;;;;;;;5090774;27;20109;-81
2022/05/01 14:22:19;;;;;;;7.32;3.85;;;;;;;;;;5070667;28;20046;-81
2022/05/01 14:24:46;;;;;;;7.22;4.00;;;;;;;;;;5088261;28;20061;-81
2022/05/01 14:27:13;;;;;;;6.68;3.78;;;;;;;;;;5098356;28;20345;-80
2022/05/01 14:29:39;;;;;;;6.85;4.00;;;;;;;;;;5099205;28;20044;-79
2022/05/01 14:32:12;;;;;;;8.82;4.97;;;;;;;;;;5098242;28;20088;-79
2022/05/01 14:34:42;;;;;;;8.93;5.37;;;;;;;;;;5109973;27;20055;-80
2022/05/01 14:37:11;;;;;;;8.95;4.97;;;;;;;;;;5091958;28;20075;-81
2022/05/01 14:39:44;;;;;;;8.75;5.10;;;;;;;;;;5074951;28;20498;-81
2022/05/01 14:42:15;;;;;;;7.90;5.15;;;;;;;;;;5092160;28;20457;-81
2022/05/01 14:44:56;;;;;;;7.60;5.28;;;;;;;;;;5092150;28;20066;-81
2022/05/01 14:47:26;;;;;;;8.27;5.03;;;;;;;;;;5089614;28;20126;-82
2022/05/01 14:50:00;;;;;;;8.98;4.93;;;;;;;;;;5091929;28;20074;-81
2022/05/01 14:52:28;;;;;;;10.02;5.35;;;;;;;;;;5075407;28;20039;-79
2022/05/01 14:54:55;;;;;;;14.95;6.00;;;;;;;;;;5092216;28;20046;-82
2022/05/01 14:57:22;;;;;;;9.55;5.40;;;;;;;;;;5091169;28;20044;-80
2022/05/01 15:08:36;;;;;;;8.70;5.15;;;;;;;;;;5009540;28;20041;-80
2022/05/01 15:11:03;;;;;;;7.28;4.60;;;;;;;;;;5058527;28;20047;-81
2022/05/01 15:13:29;;;;;;;9.10;4.97;;;;;;;;;;5091386;28;20040;-80
2022/05/01 15:16:11;;;;;;;8.88;5.30;;;;;;;;;;5091592;28;20030;-81
2022/05/01 15:18:51;;;;;;;7.82;4.35;;;;;;;;;;5084474;28;20046;-79
2022/05/01 15:21:25;;;;;;;11.60;10.50;;;;;;;;;;5083996;28;20044;-81